Time;durP1;ratioP1;P1;durP2;ratioP2;P2;SDS_P1;SDS_P2;PMS_P1;PMS_P2;Temp;Humidity;BMP_temperature;BMP_pressure;BME280_temperature;BME280_humidity;BME280_pressure;Samples;Min_cycle;Max_cycle;Signal;HPM_P1;HPM_P2
2022/05/04 00:03:19;;;;;;;4.07;2.97;;;;;;;9.91;73.25;100175.69;31352065;28;20413;-73
2022/05/04 00:18:21;;;;;;;3.50;2.23;;;;;;;9.86;72.08;100182.31;31330435;28;20053;-72
2022/05/04 00:33:23;;;;;;;2.80;1.47;;;;;;;9.88;71.96;100185.41;31349000;28;20059;-73
2022/05/04 00:48:25;;;;;;;7.00;1.30;;;;;;;9.91;71.63;100171.03;31348019;28;20524;-73
2022/05/04 01:03:27;;;;;;;2.80;1.70;;;;;;;9.96;71.26;100161.63;31353011;28;20061;-73
2022/05/04 01:18:29;;;;;;;5.30;2.87;;;;;;;9.80;70.48;100164.97;31329398;28;21812;-73
2022/05/04 01:33:31;;;;;;;3.23;2.87;;;;;;;9.71;69.77;100156.59;31346035;28;20052;-73
2022/05/04 01:48:33;;;;;;;2.67;1.87;;;;;;;9.74;69.45;100155.78;31278151;28;1370960;-73
2022/05/04 02:03:35;;;;;;;6.10;2.53;;;;;;;9.71;69.35;100167.44;31326169;28;20049;-73
2022/05/04 02:18:36;;;;;;;2.80;1.80;;;;;;;9.60;69.22;100163.38;31346554;28;20040;-73
2022/05/04 02:33:38;;;;;;;2.93;1.70;;;;;;;9.55;69.57;100161.88;31380831;28;20059;-73
2022/05/04 02:48:41;;;;;;;4.77;1.87;;;;;;;9.56;69.17;100171.53;31352903;28;20065;-73
2022/05/04 03:03:42;;;;;;;6.67;2.27;;;;;;;9.66;69.51;100175.28;31362433;28;20052;-73
2022/05/04 03:18:44;;;;;;;3.77;2.30;;;;;;;9.98;68.81;100174.78;31337685;28;20048;-72
2022/05/04 03:33:46;;;;;;;6.77;2.97;;;;;;;10.50;68.87;100186.69;31334317;28;20416;-72
2022/05/04 03:48:51;;;;;;;6.40;2.37;;;;;;;11.08;67.50;100183.66;31353771;28;20056;-71
2022/05/04 04:03:52;;;;;;;4.13;2.47;;;;;;;11.86;63.77;100182.72;31346437;28;20535;-71
2022/05/04 04:18:54;;;;;;;4.73;2.47;;;;;;;12.59;61.64;100184.00;31352784;28;20049;-71
2022/05/04 04:33:56;;;;;;;4.30;2.23;;;;;;;13.31;60.61;100178.13;31346989;28;20493;-73
2022/05/04 04:48:58;;;;;;;4.30;2.33;;;;;;;13.95;59.56;100170.66;31345943;28;20049;-71
2022/05/04 05:04:00;;;;;;;4.73;2.23;;;;;;;14.44;57.71;100162.06;31337500;28;20041;-73
2022/05/04 05:19:02;;;;;;;7.67;3.40;;;;;;;14.87;55.10;100160.56;31338374;28;20041;-72
2022/05/04 05:34:04;;;;;;;8.90;4.43;;;;;;;15.66;51.98;100153.66;31340874;28;20044;-73
2022/05/04 05:49:06;;;;;;;8.50;3.20;;;;;;;15.30;55.26;100138.63;31356140;28;20045;-72
2022/05/04 06:04:10;;;;;;;12.53;4.77;;;;;;;15.42;53.64;100138.94;31339533;28;20481;-71
2022/05/04 06:19:13;;;;;;;32.90;9.93;;;;;;;15.62;53.80;100140.13;31380700;28;20051;-72
2022/05/04 06:34:15;;;;;;;14.97;4.70;;;;;;;16.09;51.79;100135.50;31375275;28;20060;-72
2022/05/04 06:49:17;;;;;;;8.33;4.67;;;;;;;16.80;49.24;100126.97;31352816;28;20523;-72
2022/05/04 07:04:20;;;;;;;7.03;4.38;;;;;;;18.08;46.79;100116.19;31339150;28;20485;-73
2022/05/04 07:19:22;;;;;;;9.52;4.30;;;;;;;18.59;45.99;100120.66;31348825;28;20051;-71
2022/05/04 07:34:24;;;;;;;4.90;3.20;;;;;;;19.03;45.37;100123.44;31390140;28;20584;-72
2022/05/04 07:49:26;;;;;;;6.13;3.97;;;;;;;19.88;43.54;100126.94;31338696;28;20064;-70
2022/05/04 08:04:28;;;;;;;11.63;3.95;;;;;;;20.24;39.68;100116.59;31344458;28;20056;-70
2022/05/04 08:19:30;;;;;;;7.90;3.78;;;;;;;21.07;38.67;100117.41;31370122;28;20043;-71
2022/05/04 08:34:32;;;;;;;5.00;2.90;;;;;;;21.85;37.27;100116.41;31357003;28;20057;-73
2022/05/04 08:49:36;;;;;;;6.60;3.33;;;;;;;21.67;37.28;100101.78;31385118;28;20052;-70
2022/05/04 09:04:42;;;;;;;6.88;3.20;;;;;;;22.34;35.79;100096.50;31368996;28;20049;-75
2022/05/04 09:35:17;;;;;;;3.45;2.53;;;;;;;21.94;36.42;100086.56;31362622;28;20072;-77
2022/05/04 09:50:19;;;;;;;6.07;3.00;;;;;;;23.17;35.13;100077.69;31314346;28;20053;-73
2022/05/04 10:05:21;;;;;;;5.73;2.73;;;;;;;23.71;33.11;100062.22;31280131;28;20061;-76
2022/05/04 10:20:30;;;;;;;;;;;;;;;24.50;31.56;100045.94;31268079;28;20073;-70
2022/05/04 10:35:36;;;;;;;10.60;5.68;;;;;;;25.02;31.38;100040.22;31259405;28;19928;-71
2022/05/04 10:50:51;;;;;;;5.72;3.47;;;;;;;23.98;32.08;100030.09;31335272;28;20052;-71
2022/05/04 11:05:54;;;;;;;4.90;3.20;;;;;;;21.89;33.46;100023.75;31348697;28;20057;-71
2022/05/04 11:20:56;;;;;;;4.55;2.83;;;;;;;21.00;36.04;100001.22;31370452;28;20041;-71
2022/05/04 11:35:58;;;;;;;5.53;3.03;;;;;;;19.97;37.50;99986.31;31348710;28;20053;-71
2022/05/04 11:51:00;;;;;;;5.28;3.17;;;;;;;20.22;37.59;99957.25;31358756;28;20053;-71
2022/05/04 12:06:04;;;;;;;6.72;3.50;;;;;;;20.28;38.64;99944.25;31358416;28;20044;-70
2022/05/04 12:21:17;;;;;;;5.93;4.00;;;;;;;20.19;39.64;99935.41;31351501;28;20044;-71
2022/05/04 12:36:19;;;;;;;6.17;3.43;;;;;;;20.19;38.96;99943.66;31338235;28;20041;-72
2022/05/04 12:51:24;;;;;;;6.10;3.70;;;;;;;19.93;39.30;99941.69;31338534;28;20053;-71
2022/05/04 13:06:26;;;;;;;10.02;4.75;;;;;;;19.74;40.66;99933.00;31347656;28;20400;-71
2022/05/04 13:21:29;;;;;;;10.63;3.45;;;;;;;19.67;41.18;99927.13;31330992;28;20041;-82
2022/05/04 13:36:35;;;;;;;7.57;3.25;;;;;;;19.63;41.39;99923.84;31337115;28;20084;-73
2022/05/04 14:06:58;;;;;;;5.18;3.53;;;;;;;19.24;41.50;99921.38;31332007;28;20704;-72
2022/05/04 14:21:59;;;;;;;5.57;3.30;;;;;;;19.10;42.83;99938.72;31364284;28;20053;-71
2022/05/04 14:37:02;;;;;;;4.38;3.15;;;;;;;18.96;42.16;99940.28;31364176;28;20052;-70
2022/05/04 14:52:04;;;;;;;5.82;3.60;;;;;;;18.65;44.05;99943.59;31361868;28;20049;-73
2022/05/04 15:07:06;;;;;;;7.28;4.60;;;;;;;18.39;45.43;99931.66;31380831;28;20053;-75
2022/05/04 15:22:08;;;;;;;6.43;3.95;;;;;;;18.06;46.29;99935.38;31359034;28;20049;-75
2022/05/04 15:37:10;;;;;;;6.78;3.53;;;;;;;17.94;45.98;99941.16;31336736;28;20513;-72
2022/05/04 15:52:12;;;;;;;6.38;3.13;;;;;;;17.70;46.55;99943.97;31346751;28;20052;-77
2022/05/04 16:07:14;;;;;;;7.63;4.95;;;;;;;17.39;49.79;99931.38;31337186;28;20057;-73
2022/05/04 16:22:16;;;;;;;12.45;6.07;;;;;;;17.16;50.84;99934.88;31351449;28;20491;-72
2022/05/04 16:37:18;;;;;;;10.23;4.93;;;;;;;16.88;51.65;99948.00;31343081;28;20057;-72
2022/05/04 16:52:20;;;;;;;18.13;9.50;;;;;;;16.62;53.03;99952.34;31349104;28;20045;-72
2022/05/04 17:07:22;;;;;;;8.50;3.50;;;;;;;16.29;55.15;99953.06;31344733;28;20055;-72
2022/05/04 17:22:24;;;;;;;9.20;6.10;;;;;;;16.17;56.60;99972.41;31351958;28;20049;-73
2022/05/04 17:37:26;;;;;;;11.10;7.00;;;;;;;16.09;58.06;99991.13;31343702;28;20060;-73
2022/05/04 17:52:28;;;;;;;11.70;6.70;;;;;;;15.99;58.52;99990.38;31353168;28;20053;-73
2022/05/04 18:07:30;;;;;;;36.70;17.53;;;;;;;16.02;58.72;100010.63;31375633;28;20044;-74
2022/05/04 18:22:32;;;;;;;8.20;4.60;;;;;;;15.87;60.06;100018.66;31371273;28;20045;-74
2022/05/04 18:37:35;;;;;;;6.50;3.87;;;;;;;15.81;60.17;100028.72;31372745;28;20053;-74
2022/05/04 18:52:37;;;;;;;7.77;4.37;;;;;;;15.77;61.11;100047.28;31354144;28;20518;-75
2022/05/04 19:07:40;;;;;;;5.83;3.80;;;;;;;15.58;62.04;100064.88;31326260;28;20053;-73
2022/05/04 19:22:42;;;;;;;7.90;3.77;;;;;;;15.44;63.60;100052.50;31335458;28;20049;-74
2022/05/04 19:37:44;;;;;;;8.47;4.73;;;;;;;15.31;65.27;100060.84;31345231;28;20067;-73
2022/05/04 19:52:46;;;;;;;21.13;7.13;;;;;;;15.21;66.19;100044.84;31352281;28;20075;-73
2022/05/04 20:07:48;;;;;;;10.73;5.40;;;;;;;15.04;67.77;100060.72;31352725;28;20048;-74
2022/05/04 20:22:51;;;;;;;6.77;4.07;;;;;;;15.01;68.56;100056.16;31325186;28;20048;-72
2022/05/04 20:53:19;;;;;;;6.80;4.10;;;;;;;14.74;70.85;100075.16;31345357;28;20041;-71
2022/05/04 21:08:21;;;;;;;5.63;3.90;;;;;;;14.56;72.43;100075.81;31366701;28;20060;-72
2022/05/04 21:23:23;;;;;;;7.23;3.90;;;;;;;14.31;75.37;100076.66;31360021;28;20056;-73
2022/05/04 21:38:26;;;;;;;9.67;4.63;;;;;;;14.19;75.43;100086.44;31370423;28;20055;-72
2022/05/04 21:53:28;;;;;;;8.43;4.47;;;;;;;14.22;75.23;100092.97;31264368;28;20049;-73
2022/05/04 22:08:30;;;;;;;6.87;4.77;;;;;;;14.22;74.58;100093.72;31226538;28;20410;-72
2022/05/04 22:23:35;;;;;;;9.63;5.00;;;;;;;14.09;75.03;100103.19;31218936;28;20046;-73
2022/05/04 22:38:37;;;;;;;7.23;5.07;;;;;;;13.98;75.30;100109.75;31266964;28;20053;-72
2022/05/04 22:53:39;;;;;;;8.23;5.27;;;;;;;14.03;74.32;100115.88;31339251;28;20048;-71
2022/05/04 23:08:42;;;;;;;7.03;3.80;;;;;;;14.11;72.90;100128.06;31357045;28;20468;-73
2022/05/04 23:23:44;;;;;;;5.83;4.10;;;;;;;14.04;72.20;100142.72;31357322;28;20045;-72
2022/05/04 23:38:46;;;;;;;11.13;4.23;;;;;;;13.81;73.53;100152.03;31356824;28;20071;-73
2022/05/04 23:53:48;;;;;;;5.27;3.90;;;;;;;13.66;73.53;100170.06;31354822;28;20059;-74
